sensor_id;sensor_type;location;lat;lon;timestamp;P1;durP1;ratioP1;P2;durP2;ratioP2
26742;SDS011;14341;51.256;22.478;2022-12-24T00:00:54;160.73;;;82.88;;
26742;SDS011;14341;51.256;22.478;2022-12-24T00:03:57;161.80;;;81.13;;
26742;SDS011;14341;51.256;22.478;2022-12-24T00:07:02;153.85;;;79.47;;
26742;SDS011;14341;51.256;22.478;2022-12-24T00:10:06;168.05;;;85.95;;
26742;SDS011;14341;51.256;22.478;2022-12-24T00:13:10;240.10;;;120.30;;
26742;SDS011;14341;51.256;22.478;2022-12-24T00:16:14;171.95;;;95.72;;
26742;SDS011;14341;51.256;22.478;2022-12-24T00:19:17;203.57;;;114.50;;
26742;SDS011;14341;51.256;22.478;2022-12-24T00:22:22;248.48;;;132.65;;
26742;SDS011;14341;51.256;22.478;2022-12-24T00:25:25;364.95;;;191.48;;
26742;SDS011;14341;51.256;22.478;2022-12-24T00:28:29;219.48;;;112.60;;
26742;SDS011;14341;51.256;22.478;2022-12-24T00:31:32;146.63;;;79.93;;
26742;SDS011;14341;51.256;22.478;2022-12-24T00:34:35;140.63;;;75.78;;
26742;SDS011;14341;51.256;22.478;2022-12-24T00:37:40;149.80;;;78.88;;
26742;SDS011;14341;51.256;22.478;2022-12-24T00:40:43;209.07;;;98.63;;
26742;SDS011;14341;51.256;22.478;2022-12-24T00:43:47;144.88;;;75.75;;
26742;SDS011;14341;51.256;22.478;2022-12-24T00:46:50;140.70;;;75.72;;
26742;SDS011;14341;51.256;22.478;2022-12-24T00:49:54;141.32;;;76.57;;
26742;SDS011;14341;51.256;22.478;2022-12-24T00:52:58;164.20;;;85.30;;
26742;SDS011;14341;51.256;22.478;2022-12-24T00:56:02;126.90;;;72.38;;
26742;SDS011;14341;51.256;22.478;2022-12-24T00:59:05;133.80;;;70.97;;
26742;SDS011;14341;51.256;22.478;2022-12-24T01:02:09;142.60;;;75.82;;
26742;SDS011;14341;51.256;22.478;2022-12-24T01:05:12;144.40;;;77.70;;
26742;SDS011;14341;51.256;22.478;2022-12-24T01:08:17;156.98;;;82.07;;
26742;SDS011;14341;51.256;22.478;2022-12-24T01:11:21;122.93;;;69.95;;
26742;SDS011;14341;51.256;22.478;2022-12-24T01:14:24;137.30;;;72.93;;
26742;SDS011;14341;51.256;22.478;2022-12-24T01:17:29;148.13;;;76.40;;
26742;SDS011;14341;51.256;22.478;2022-12-24T01:20:33;144.90;;;76.40;;
26742;SDS011;14341;51.256;22.478;2022-12-24T01:23:38;142.02;;;76.75;;
26742;SDS011;14341;51.256;22.478;2022-12-24T01:26:41;150.05;;;80.20;;
26742;SDS011;14341;51.256;22.478;2022-12-24T01:29:45;159.10;;;83.22;;
26742;SDS011;14341;51.256;22.478;2022-12-24T01:32:48;138.88;;;74.13;;
26742;SDS011;14341;51.256;22.478;2022-12-24T01:35:51;131.70;;;71.07;;
26742;SDS011;14341;51.256;22.478;2022-12-24T01:38:56;115.78;;;64.07;;
26742;SDS011;14341;51.256;22.478;2022-12-24T01:42:00;117.15;;;63.28;;
26742;SDS011;14341;51.256;22.478;2022-12-24T01:45:33;122.70;;;65.25;;
26742;SDS011;14341;51.256;22.478;2022-12-24T01:48:47;114.20;;;64.10;;
26742;SDS011;14341;51.256;22.478;2022-12-24T01:51:55;114.43;;;64.43;;
26742;SDS011;14341;51.256;22.478;2022-12-24T01:55:04;113.47;;;62.75;;
26742;SDS011;14341;51.256;22.478;2022-12-24T01:58:09;119.10;;;63.25;;
26742;SDS011;14341;51.256;22.478;2022-12-24T02:01:14;124.78;;;63.75;;
26742;SDS011;14341;51.256;22.478;2022-12-24T02:04:21;113.05;;;62.70;;
26742;SDS011;14341;51.256;22.478;2022-12-24T02:07:31;115.07;;;61.85;;
26742;SDS011;14341;51.256;22.478;2022-12-24T02:10:37;106.20;;;60.22;;
26742;SDS011;14341;51.256;22.478;2022-12-24T02:13:40;114.88;;;61.60;;
26742;SDS011;14341;51.256;22.478;2022-12-24T02:16:47;102.00;;;58.85;;
26742;SDS011;14341;51.256;22.478;2022-12-24T02:20:15;113.30;;;58.97;;
26742;SDS011;14341;51.256;22.478;2022-12-24T02:23:41;107.30;;;59.15;;
26742;SDS011;14341;51.256;22.478;2022-12-24T02:30:15;107.57;;;57.70;;
26742;SDS011;14341;51.256;22.478;2022-12-24T02:33:24;98.53;;;55.83;;
26742;SDS011;14341;51.256;22.478;2022-12-24T02:36:31;97.95;;;54.83;;
26742;SDS011;14341;51.256;22.478;2022-12-24T02:39:39;104.70;;;57.03;;
26742;SDS011;14341;51.256;22.478;2022-12-24T02:42:49;103.10;;;56.75;;
26742;SDS011;14341;51.256;22.478;2022-12-24T02:45:58;105.00;;;58.78;;
26742;SDS011;14341;51.256;22.478;2022-12-24T02:49:04;105.15;;;57.50;;
26742;SDS011;14341;51.256;22.478;2022-12-24T02:52:25;112.97;;;61.70;;
26742;SDS011;14341;51.256;22.478;2022-12-24T02:55:32;118.47;;;64.00;;
26742;SDS011;14341;51.256;22.478;2022-12-24T02:58:42;112.80;;;63.58;;
26742;SDS011;14341;51.256;22.478;2022-12-24T03:01:58;115.68;;;65.30;;
26742;SDS011;14341;51.256;22.478;2022-12-24T03:05:17;122.20;;;65.00;;
26742;SDS011;14341;51.256;22.478;2022-12-24T03:08:29;116.13;;;61.67;;
26742;SDS011;14341;51.256;22.478;2022-12-24T03:11:39;110.25;;;60.85;;
26742;SDS011;14341;51.256;22.478;2022-12-24T03:14:50;118.80;;;61.35;;
26742;SDS011;14341;51.256;22.478;2022-12-24T03:17:54;120.38;;;64.10;;
26742;SDS011;14341;51.256;22.478;2022-12-24T03:21:02;114.75;;;59.17;;
26742;SDS011;14341;51.256;22.478;2022-12-24T03:24:10;114.13;;;59.33;;
26742;SDS011;14341;51.256;22.478;2022-12-24T03:27:14;103.82;;;57.03;;
26742;SDS011;14341;51.256;22.478;2022-12-24T03:30:19;105.65;;;58.10;;
26742;SDS011;14341;51.256;22.478;2022-12-24T03:33:23;107.57;;;57.83;;
26742;SDS011;14341;51.256;22.478;2022-12-24T03:36:27;107.85;;;57.65;;
26742;SDS011;14341;51.256;22.478;2022-12-24T03:39:31;107.93;;;56.40;;
26742;SDS011;14341;51.256;22.478;2022-12-24T03:42:34;102.70;;;54.75;;
26742;SDS011;14341;51.256;22.478;2022-12-24T03:45:37;103.20;;;55.33;;
26742;SDS011;14341;51.256;22.478;2022-12-24T03:48:42;100.38;;;55.22;;
26742;SDS011;14341;51.256;22.478;2022-12-24T03:51:46;102.03;;;55.35;;
26742;SDS011;14341;51.256;22.478;2022-12-24T03:54:49;104.35;;;54.10;;
26742;SDS011;14341;51.256;22.478;2022-12-24T03:57:52;111.57;;;54.75;;
26742;SDS011;14341;51.256;22.478;2022-12-24T04:00:56;107.05;;;53.20;;
26742;SDS011;14341;51.256;22.478;2022-12-24T04:04:03;99.95;;;52.35;;
26742;SDS011;14341;51.256;22.478;2022-12-24T04:07:07;96.25;;;52.00;;
26742;SDS011;14341;51.256;22.478;2022-12-24T04:10:10;96.47;;;51.20;;
26742;SDS011;14341;51.256;22.478;2022-12-24T04:13:14;96.72;;;51.67;;
26742;SDS011;14341;51.256;22.478;2022-12-24T04:16:18;102.38;;;50.72;;
26742;SDS011;14341;51.256;22.478;2022-12-24T04:19:22;94.85;;;50.22;;
26742;SDS011;14341;51.256;22.478;2022-12-24T04:22:26;96.55;;;50.65;;
26742;SDS011;14341;51.256;22.478;2022-12-24T04:25:30;93.07;;;48.95;;
26742;SDS011;14341;51.256;22.478;2022-12-24T04:28:33;93.22;;;49.50;;
26742;SDS011;14341;51.256;22.478;2022-12-24T04:31:41;88.63;;;48.20;;
26742;SDS011;14341;51.256;22.478;2022-12-24T04:34:46;88.78;;;48.20;;
26742;SDS011;14341;51.256;22.478;2022-12-24T04:37:49;85.10;;;46.00;;
26742;SDS011;14341;51.256;22.478;2022-12-24T04:40:56;85.05;;;47.40;;
26742;SDS011;14341;51.256;22.478;2022-12-24T04:44:00;86.05;;;47.97;;
26742;SDS011;14341;51.256;22.478;2022-12-24T04:47:04;85.72;;;46.53;;
26742;SDS011;14341;51.256;22.478;2022-12-24T04:50:09;87.40;;;47.50;;
26742;SDS011;14341;51.256;22.478;2022-12-24T04:53:13;86.80;;;48.03;;
26742;SDS011;14341;51.256;22.478;2022-12-24T04:56:16;84.47;;;47.67;;
26742;SDS011;14341;51.256;22.478;2022-12-24T04:59:21;88.28;;;45.92;;
26742;SDS011;14341;51.256;22.478;2022-12-24T05:02:24;80.75;;;46.78;;
26742;SDS011;14341;51.256;22.478;2022-12-24T05:05:29;81.13;;;45.60;;
26742;SDS011;14341;51.256;22.478;2022-12-24T05:08:32;90.43;;;48.00;;
26742;SDS011;14341;51.256;22.478;2022-12-24T05:11:36;95.13;;;48.92;;
26742;SDS011;14341;51.256;22.478;2022-12-24T05:14:40;98.85;;;50.30;;
26742;SDS011;14341;51.256;22.478;2022-12-24T05:17:44;91.50;;;48.30;;
26742;SDS011;14341;51.256;22.478;2022-12-24T05:20:48;110.18;;;48.78;;
26742;SDS011;14341;51.256;22.478;2022-12-24T05:23:52;85.15;;;44.78;;
26742;SDS011;14341;51.256;22.478;2022-12-24T05:27:27;76.22;;;43.33;;
26742;SDS011;14341;51.256;22.478;2022-12-24T05:30:31;77.75;;;42.33;;
26742;SDS011;14341;51.256;22.478;2022-12-24T05:33:34;75.53;;;42.25;;
26742;SDS011;14341;51.256;22.478;2022-12-24T05:36:39;79.38;;;42.95;;
26742;SDS011;14341;51.256;22.478;2022-12-24T05:39:43;69.93;;;39.85;;
26742;SDS011;14341;51.256;22.478;2022-12-24T05:42:46;70.38;;;39.42;;
26742;SDS011;14341;51.256;22.478;2022-12-24T05:45:49;66.18;;;38.88;;
26742;SDS011;14341;51.256;22.478;2022-12-24T05:48:52;60.65;;;36.85;;
26742;SDS011;14341;51.256;22.478;2022-12-24T05:51:57;64.80;;;36.88;;
26742;SDS011;14341;51.256;22.478;2022-12-24T05:55:00;50.95;;;33.15;;
26742;SDS011;14341;51.256;22.478;2022-12-24T05:58:04;56.55;;;33.15;;
26742;SDS011;14341;51.256;22.478;2022-12-24T06:01:07;51.47;;;31.50;;
26742;SDS011;14341;51.256;22.478;2022-12-24T06:04:12;45.30;;;30.40;;
26742;SDS011;14341;51.256;22.478;2022-12-24T06:07:16;47.92;;;31.27;;
26742;SDS011;14341;51.256;22.478;2022-12-24T06:10:20;50.25;;;32.15;;
26742;SDS011;14341;51.256;22.478;2022-12-24T06:13:23;57.47;;;34.30;;
26742;SDS011;14341;51.256;22.478;2022-12-24T06:16:27;52.13;;;32.72;;
26742;SDS011;14341;51.256;22.478;2022-12-24T06:19:30;58.15;;;33.05;;
26742;SDS011;14341;51.256;22.478;2022-12-24T06:22:35;55.05;;;32.80;;
26742;SDS011;14341;51.256;22.478;2022-12-24T06:25:38;56.90;;;33.58;;
26742;SDS011;14341;51.256;22.478;2022-12-24T06:28:42;48.70;;;32.03;;
26742;SDS011;14341;51.256;22.478;2022-12-24T06:31:46;65.45;;;35.13;;
26742;SDS011;14341;51.256;22.478;2022-12-24T06:34:49;56.28;;;35.65;;
26742;SDS011;14341;51.256;22.478;2022-12-24T06:37:55;63.30;;;36.65;;
26742;SDS011;14341;51.256;22.478;2022-12-24T06:40:58;53.58;;;34.50;;
26742;SDS011;14341;51.256;22.478;2022-12-24T06:44:02;59.17;;;34.65;;
26742;SDS011;14341;51.256;22.478;2022-12-24T06:47:05;56.60;;;35.15;;
26742;SDS011;14341;51.256;22.478;2022-12-24T06:50:09;49.38;;;32.50;;
26742;SDS011;14341;51.256;22.478;2022-12-24T06:53:14;47.65;;;32.10;;
26742;SDS011;14341;51.256;22.478;2022-12-24T06:56:18;49.42;;;31.45;;
26742;SDS011;14341;51.256;22.478;2022-12-24T06:59:22;43.80;;;30.00;;
26742;SDS011;14341;51.256;22.478;2022-12-24T07:02:25;51.03;;;31.25;;
26742;SDS011;14341;51.256;22.478;2022-12-24T07:05:29;68.72;;;36.33;;
26742;SDS011;14341;51.256;22.478;2022-12-24T07:08:34;62.40;;;36.15;;
26742;SDS011;14341;51.256;22.478;2022-12-24T07:11:37;69.80;;;38.00;;
26742;SDS011;14341;51.256;22.478;2022-12-24T07:14:41;67.05;;;39.10;;
26742;SDS011;14341;51.256;22.478;2022-12-24T07:17:44;62.42;;;37.53;;
26742;SDS011;14341;51.256;22.478;2022-12-24T07:20:47;70.75;;;38.22;;
26742;SDS011;14341;51.256;22.478;2022-12-24T07:23:52;66.47;;;38.30;;
26742;SDS011;14341;51.256;22.478;2022-12-24T07:26:55;60.40;;;36.90;;
26742;SDS011;14341;51.256;22.478;2022-12-24T07:29:59;64.10;;;37.67;;
26742;SDS011;14341;51.256;22.478;2022-12-24T07:33:02;65.28;;;36.80;;
26742;SDS011;14341;51.256;22.478;2022-12-24T07:36:06;63.90;;;35.80;;
26742;SDS011;14341;51.256;22.478;2022-12-24T07:39:13;69.40;;;37.03;;
26742;SDS011;14341;51.256;22.478;2022-12-24T07:42:16;66.85;;;38.30;;
26742;SDS011;14341;51.256;22.478;2022-12-24T07:45:20;64.30;;;37.65;;
26742;SDS011;14341;51.256;22.478;2022-12-24T07:48:23;65.82;;;37.00;;
26742;SDS011;14341;51.256;22.478;2022-12-24T07:51:27;73.03;;;39.65;;
26742;SDS011;14341;51.256;22.478;2022-12-24T07:54:32;71.68;;;38.35;;
26742;SDS011;14341;51.256;22.478;2022-12-24T07:57:36;62.08;;;35.60;;
26742;SDS011;14341;51.256;22.478;2022-12-24T08:00:39;66.07;;;38.60;;
26742;SDS011;14341;51.256;22.478;2022-12-24T08:03:43;71.22;;;39.10;;
26742;SDS011;14341;51.256;22.478;2022-12-24T08:06:46;87.10;;;50.08;;
26742;SDS011;14341;51.256;22.478;2022-12-24T08:09:51;80.18;;;46.25;;
26742;SDS011;14341;51.256;22.478;2022-12-24T08:12:55;80.78;;;46.30;;
26742;SDS011;14341;51.256;22.478;2022-12-24T08:15:58;72.90;;;41.35;;
26742;SDS011;14341;51.256;22.478;2022-12-24T08:19:02;63.33;;;38.35;;
26742;SDS011;14341;51.256;22.478;2022-12-24T08:22:05;70.75;;;37.78;;
26742;SDS011;14341;51.256;22.478;2022-12-24T08:25:10;71.07;;;37.58;;
26742;SDS011;14341;51.256;22.478;2022-12-24T08:28:14;63.25;;;35.83;;
26742;SDS011;14341;51.256;22.478;2022-12-24T08:31:19;68.63;;;40.38;;
26742;SDS011;14341;51.256;22.478;2022-12-24T08:34:22;63.53;;;36.25;;
26742;SDS011;14341;51.256;22.478;2022-12-24T08:37:26;58.15;;;34.47;;
26742;SDS011;14341;51.256;22.478;2022-12-24T08:40:31;74.22;;;41.13;;
26742;SDS011;14341;51.256;22.478;2022-12-24T08:43:34;75.45;;;41.55;;
26742;SDS011;14341;51.256;22.478;2022-12-24T08:46:38;81.88;;;44.30;;
26742;SDS011;14341;51.256;22.478;2022-12-24T08:49:41;63.17;;;36.65;;
26742;SDS011;14341;51.256;22.478;2022-12-24T08:52:45;59.60;;;35.55;;
26742;SDS011;14341;51.256;22.478;2022-12-24T08:55:51;58.03;;;34.15;;
26742;SDS011;14341;51.256;22.478;2022-12-24T08:58:56;56.38;;;34.17;;
26742;SDS011;14341;51.256;22.478;2022-12-24T09:02:00;51.80;;;32.28;;
26742;SDS011;14341;51.256;22.478;2022-12-24T09:05:04;49.90;;;31.75;;
26742;SDS011;14341;51.256;22.478;2022-12-24T09:08:08;61.85;;;36.15;;
26742;SDS011;14341;51.256;22.478;2022-12-24T09:11:13;55.15;;;33.28;;
26742;SDS011;14341;51.256;22.478;2022-12-24T09:14:19;56.42;;;32.83;;
26742;SDS011;14341;51.256;22.478;2022-12-24T09:17:22;54.55;;;32.50;;
26742;SDS011;14341;51.256;22.478;2022-12-24T09:20:26;58.67;;;33.08;;
26742;SDS011;14341;51.256;22.478;2022-12-24T09:23:29;54.75;;;32.10;;
26742;SDS011;14341;51.256;22.478;2022-12-24T09:26:35;56.92;;;33.75;;
26742;SDS011;14341;51.256;22.478;2022-12-24T09:29:39;57.50;;;34.08;;
26742;SDS011;14341;51.256;22.478;2022-12-24T09:32:43;52.33;;;33.58;;
26742;SDS011;14341;51.256;22.478;2022-12-24T09:35:49;55.25;;;33.38;;
26742;SDS011;14341;51.256;22.478;2022-12-24T09:38:52;52.65;;;30.50;;
26742;SDS011;14341;51.256;22.478;2022-12-24T09:41:59;45.83;;;28.40;;
26742;SDS011;14341;51.256;22.478;2022-12-24T09:45:17;54.63;;;33.58;;
26742;SDS011;14341;51.256;22.478;2022-12-24T09:48:26;60.05;;;37.13;;
26742;SDS011;14341;51.256;22.478;2022-12-24T09:51:33;74.57;;;41.97;;
26742;SDS011;14341;51.256;22.478;2022-12-24T09:54:40;63.38;;;38.83;;
26742;SDS011;14341;51.256;22.478;2022-12-24T09:57:52;46.60;;;28.75;;
26742;SDS011;14341;51.256;22.478;2022-12-24T10:00:57;44.42;;;27.60;;
26742;SDS011;14341;51.256;22.478;2022-12-24T10:04:01;32.35;;;20.98;;
26742;SDS011;14341;51.256;22.478;2022-12-24T10:07:07;55.30;;;31.60;;
26742;SDS011;14341;51.256;22.478;2022-12-24T10:10:24;44.78;;;27.42;;
26742;SDS011;14341;51.256;22.478;2022-12-24T10:13:38;46.70;;;26.42;;
26742;SDS011;14341;51.256;22.478;2022-12-24T10:16:51;44.55;;;25.65;;
26742;SDS011;14341;51.256;22.478;2022-12-24T10:20:07;35.67;;;23.48;;
26742;SDS011;14341;51.256;22.478;2022-12-24T10:23:29;38.05;;;23.45;;
26742;SDS011;14341;51.256;22.478;2022-12-24T10:26:38;41.20;;;24.73;;
26742;SDS011;14341;51.256;22.478;2022-12-24T10:29:48;37.83;;;22.88;;
26742;SDS011;14341;51.256;22.478;2022-12-24T10:32:55;38.10;;;23.73;;
26742;SDS011;14341;51.256;22.478;2022-12-24T10:35:58;39.50;;;24.48;;
26742;SDS011;14341;51.256;22.478;2022-12-24T10:39:11;35.20;;;23.27;;
26742;SDS011;14341;51.256;22.478;2022-12-24T10:42:19;39.08;;;25.15;;
26742;SDS011;14341;51.256;22.478;2022-12-24T10:45:28;44.33;;;27.25;;
26742;SDS011;14341;51.256;22.478;2022-12-24T10:48:39;52.63;;;30.20;;
26742;SDS011;14341;51.256;22.478;2022-12-24T10:51:51;46.70;;;29.38;;
26742;SDS011;14341;51.256;22.478;2022-12-24T10:55:06;45.05;;;29.98;;
26742;SDS011;14341;51.256;22.478;2022-12-24T10:58:14;44.25;;;27.92;;
26742;SDS011;14341;51.256;22.478;2022-12-24T11:01:40;43.78;;;27.33;;
26742;SDS011;14341;51.256;22.478;2022-12-24T11:04:46;47.60;;;29.60;;
26742;SDS011;14341;51.256;22.478;2022-12-24T11:07:58;50.65;;;29.02;;
26742;SDS011;14341;51.256;22.478;2022-12-24T11:11:02;52.65;;;31.80;;
26742;SDS011;14341;51.256;22.478;2022-12-24T11:14:10;60.03;;;34.20;;
26742;SDS011;14341;51.256;22.478;2022-12-24T11:17:19;53.13;;;31.60;;
26742;SDS011;14341;51.256;22.478;2022-12-24T11:20:25;54.65;;;32.20;;
26742;SDS011;14341;51.256;22.478;2022-12-24T11:23:30;52.22;;;31.90;;
26742;SDS011;14341;51.256;22.478;2022-12-24T11:26:34;48.55;;;29.40;;
26742;SDS011;14341;51.256;22.478;2022-12-24T11:29:37;55.33;;;31.73;;
26742;SDS011;14341;51.256;22.478;2022-12-24T11:32:42;57.45;;;33.35;;
26742;SDS011;14341;51.256;22.478;2022-12-24T11:35:48;62.15;;;33.67;;
26742;SDS011;14341;51.256;22.478;2022-12-24T11:38:56;55.17;;;33.22;;
26742;SDS011;14341;51.256;22.478;2022-12-24T11:42:00;62.65;;;36.03;;
26742;SDS011;14341;51.256;22.478;2022-12-24T11:45:05;91.97;;;48.10;;
26742;SDS011;14341;51.256;22.478;2022-12-24T11:48:25;102.13;;;54.47;;
26742;SDS011;14341;51.256;22.478;2022-12-24T11:51:31;109.25;;;56.42;;
26742;SDS011;14341;51.256;22.478;2022-12-24T11:54:36;100.53;;;54.13;;
26742;SDS011;14341;51.256;22.478;2022-12-24T11:57:47;87.30;;;47.33;;
26742;SDS011;14341;51.256;22.478;2022-12-24T12:00:57;87.78;;;47.00;;
26742;SDS011;14341;51.256;22.478;2022-12-24T12:04:18;82.88;;;45.65;;
26742;SDS011;14341;51.256;22.478;2022-12-24T12:07:24;80.38;;;46.30;;
26742;SDS011;14341;51.256;22.478;2022-12-24T12:10:33;84.38;;;46.38;;
26742;SDS011;14341;51.256;22.478;2022-12-24T12:13:39;82.53;;;46.50;;
26742;SDS011;14341;51.256;22.478;2022-12-24T12:16:47;77.85;;;44.85;;
26742;SDS011;14341;51.256;22.478;2022-12-24T12:20:09;70.90;;;43.13;;
26742;SDS011;14341;51.256;22.478;2022-12-24T12:23:16;81.80;;;43.85;;
26742;SDS011;14341;51.256;22.478;2022-12-24T12:26:26;178.35;;;97.13;;
26742;SDS011;14341;51.256;22.478;2022-12-24T12:29:34;113.70;;;60.95;;
26742;SDS011;14341;51.256;22.478;2022-12-24T12:32:44;96.82;;;52.60;;
26742;SDS011;14341;51.256;22.478;2022-12-24T12:35:55;198.25;;;95.93;;
26742;SDS011;14341;51.256;22.478;2022-12-24T12:39:02;181.38;;;103.38;;
26742;SDS011;14341;51.256;22.478;2022-12-24T12:42:07;172.27;;;102.18;;
26742;SDS011;14341;51.256;22.478;2022-12-24T12:45:28;122.57;;;75.07;;
26742;SDS011;14341;51.256;22.478;2022-12-24T12:48:53;93.15;;;51.80;;
26742;SDS011;14341;51.256;22.478;2022-12-24T12:52:14;79.78;;;46.10;;
26742;SDS011;14341;51.256;22.478;2022-12-24T12:55:27;82.43;;;44.15;;
26742;SDS011;14341;51.256;22.478;2022-12-24T12:58:38;81.70;;;43.90;;
26742;SDS011;14341;51.256;22.478;2022-12-24T13:01:46;79.60;;;41.70;;
26742;SDS011;14341;51.256;22.478;2022-12-24T13:05:05;75.65;;;42.65;;
26742;SDS011;14341;51.256;22.478;2022-12-24T13:08:39;84.75;;;46.45;;
26742;SDS011;14341;51.256;22.478;2022-12-24T13:12:03;133.07;;;65.93;;
26742;SDS011;14341;51.256;22.478;2022-12-24T13:15:36;187.18;;;75.97;;
26742;SDS011;14341;51.256;22.478;2022-12-24T13:19:02;199.65;;;80.35;;
26742;SDS011;14341;51.256;22.478;2022-12-24T13:22:16;126.20;;;64.03;;
26742;SDS011;14341;51.256;22.478;2022-12-24T13:25:27;158.50;;;70.35;;
26742;SDS011;14341;51.256;22.478;2022-12-24T13:28:35;137.68;;;64.70;;
26742;SDS011;14341;51.256;22.478;2022-12-24T13:31:39;143.70;;;66.20;;
26742;SDS011;14341;51.256;22.478;2022-12-24T13:34:44;116.28;;;57.72;;
26742;SDS011;14341;51.256;22.478;2022-12-24T13:37:51;161.50;;;57.90;;
26742;SDS011;14341;51.256;22.478;2022-12-24T13:40:56;122.18;;;54.22;;
26742;SDS011;14341;51.256;22.478;2022-12-24T13:44:42;108.22;;;50.90;;
26742;SDS011;14341;51.256;22.478;2022-12-24T13:47:46;142.88;;;50.80;;
26742;SDS011;14341;51.256;22.478;2022-12-24T13:50:50;109.30;;;50.20;;
26742;SDS011;14341;51.256;22.478;2022-12-24T13:53:56;88.07;;;46.72;;
26742;SDS011;14341;51.256;22.478;2022-12-24T13:57:14;94.18;;;48.13;;
26742;SDS011;14341;51.256;22.478;2022-12-24T14:03:45;168.77;;;71.22;;
26742;SDS011;14341;51.256;22.478;2022-12-24T14:06:50;266.20;;;120.55;;
26742;SDS011;14341;51.256;22.478;2022-12-24T14:09:55;286.02;;;122.10;;
26742;SDS011;14341;51.256;22.478;2022-12-24T14:13:01;192.98;;;93.25;;
26742;SDS011;14341;51.256;22.478;2022-12-24T14:16:10;188.93;;;85.57;;
26742;SDS011;14341;51.256;22.478;2022-12-24T14:19:18;172.75;;;76.70;;
26742;SDS011;14341;51.256;22.478;2022-12-24T14:22:26;152.07;;;68.63;;
26742;SDS011;14341;51.256;22.478;2022-12-24T14:25:32;149.80;;;65.75;;
26742;SDS011;14341;51.256;22.478;2022-12-24T14:28:39;194.18;;;69.53;;
26742;SDS011;14341;51.256;22.478;2022-12-24T14:31:49;164.90;;;71.55;;
26742;SDS011;14341;51.256;22.478;2022-12-24T14:35:04;166.73;;;70.63;;
26742;SDS011;14341;51.256;22.478;2022-12-24T14:38:11;190.50;;;79.75;;
26742;SDS011;14341;51.256;22.478;2022-12-24T14:44:42;216.50;;;77.28;;
26742;SDS011;14341;51.256;22.478;2022-12-24T14:47:54;200.43;;;77.72;;
26742;SDS011;14341;51.256;22.478;2022-12-24T14:51:08;386.88;;;79.82;;
26742;SDS011;14341;51.256;22.478;2022-12-24T14:57:45;293.33;;;84.53;;
26742;SDS011;14341;51.256;22.478;2022-12-24T15:00:51;638.15;;;108.05;;
26742;SDS011;14341;51.256;22.478;2022-12-24T15:03:59;300.42;;;89.40;;
26742;SDS011;14341;51.256;22.478;2022-12-24T15:07:04;364.85;;;94.75;;
26742;SDS011;14341;51.256;22.478;2022-12-24T15:10:23;321.73;;;106.93;;
26742;SDS011;14341;51.256;22.478;2022-12-24T15:13:30;310.80;;;117.18;;
26742;SDS011;14341;51.256;22.478;2022-12-24T15:16:39;662.83;;;145.48;;
26742;SDS011;14341;51.256;22.478;2022-12-24T15:19:43;273.83;;;100.18;;
26742;SDS011;14341;51.256;22.478;2022-12-24T15:22:53;229.73;;;96.25;;
26742;SDS011;14341;51.256;22.478;2022-12-24T15:26:06;241.88;;;91.13;;
26742;SDS011;14341;51.256;22.478;2022-12-24T15:29:19;180.55;;;83.15;;
26742;SDS011;14341;51.256;22.478;2022-12-24T15:32:26;162.00;;;80.82;;
26742;SDS011;14341;51.256;22.478;2022-12-24T15:35:30;238.98;;;87.78;;
26742;SDS011;14341;51.256;22.478;2022-12-24T15:38:36;178.27;;;81.15;;
26742;SDS011;14341;51.256;22.478;2022-12-24T15:41:43;162.93;;;81.07;;
26742;SDS011;14341;51.256;22.478;2022-12-24T15:45:01;157.75;;;76.90;;
26742;SDS011;14341;51.256;22.478;2022-12-24T15:48:10;207.35;;;82.07;;
26742;SDS011;14341;51.256;22.478;2022-12-24T15:51:20;156.88;;;70.78;;
26742;SDS011;14341;51.256;22.478;2022-12-24T15:54:27;136.07;;;67.00;;
26742;SDS011;14341;51.256;22.478;2022-12-24T15:57:31;121.18;;;61.80;;
26742;SDS011;14341;51.256;22.478;2022-12-24T16:00:35;150.23;;;64.68;;
26742;SDS011;14341;51.256;22.478;2022-12-24T16:03:40;124.38;;;63.03;;
26742;SDS011;14341;51.256;22.478;2022-12-24T16:06:57;115.53;;;61.33;;
26742;SDS011;14341;51.256;22.478;2022-12-24T16:10:03;392.42;;;81.38;;
26742;SDS011;14341;51.256;22.478;2022-12-24T16:13:16;139.32;;;65.03;;
26742;SDS011;14341;51.256;22.478;2022-12-24T16:16:29;150.57;;;67.47;;
26742;SDS011;14341;51.256;22.478;2022-12-24T16:19:36;153.90;;;74.82;;
26742;SDS011;14341;51.256;22.478;2022-12-24T16:22:42;163.25;;;75.72;;
26742;SDS011;14341;51.256;22.478;2022-12-24T16:25:47;163.18;;;74.45;;
26742;SDS011;14341;51.256;22.478;2022-12-24T16:28:53;208.75;;;85.25;;
26742;SDS011;14341;51.256;22.478;2022-12-24T16:31:57;170.30;;;78.47;;
26742;SDS011;14341;51.256;22.478;2022-12-24T16:35:03;189.00;;;78.75;;
26742;SDS011;14341;51.256;22.478;2022-12-24T16:38:09;152.25;;;72.18;;
26742;SDS011;14341;51.256;22.478;2022-12-24T16:41:13;136.27;;;63.90;;
26742;SDS011;14341;51.256;22.478;2022-12-24T16:44:17;136.45;;;63.05;;
26742;SDS011;14341;51.256;22.478;2022-12-24T16:47:20;150.93;;;66.95;;
26742;SDS011;14341;51.256;22.478;2022-12-24T16:50:28;129.50;;;60.75;;
26742;SDS011;14341;51.256;22.478;2022-12-24T16:53:31;108.75;;;55.13;;
26742;SDS011;14341;51.256;22.478;2022-12-24T16:56:34;129.82;;;52.60;;
26742;SDS011;14341;51.256;22.478;2022-12-24T16:59:38;104.50;;;49.58;;
26742;SDS011;14341;51.256;22.478;2022-12-24T17:02:41;122.65;;;51.38;;
26742;SDS011;14341;51.256;22.478;2022-12-24T17:05:46;115.63;;;50.35;;
26742;SDS011;14341;51.256;22.478;2022-12-24T17:08:50;123.13;;;51.55;;
26742;SDS011;14341;51.256;22.478;2022-12-24T17:11:53;109.13;;;49.70;;
26742;SDS011;14341;51.256;22.478;2022-12-24T17:14:56;119.95;;;49.15;;
26742;SDS011;14341;51.256;22.478;2022-12-24T17:18:00;104.35;;;48.30;;
26742;SDS011;14341;51.256;22.478;2022-12-24T17:21:05;128.52;;;49.13;;
26742;SDS011;14341;51.256;22.478;2022-12-24T17:24:11;162.25;;;49.05;;
26742;SDS011;14341;51.256;22.478;2022-12-24T17:27:15;136.07;;;46.35;;
26742;SDS011;14341;51.256;22.478;2022-12-24T17:30:18;102.70;;;45.92;;
26742;SDS011;14341;51.256;22.478;2022-12-24T17:33:21;116.07;;;46.33;;
26742;SDS011;14341;51.256;22.478;2022-12-24T17:36:26;120.30;;;46.08;;
26742;SDS011;14341;51.256;22.478;2022-12-24T17:39:30;125.97;;;48.90;;
26742;SDS011;14341;51.256;22.478;2022-12-24T17:42:33;209.88;;;56.58;;
26742;SDS011;14341;51.256;22.478;2022-12-24T17:45:38;198.05;;;59.33;;
26742;SDS011;14341;51.256;22.478;2022-12-24T17:48:42;198.65;;;56.00;;
26742;SDS011;14341;51.256;22.478;2022-12-24T17:51:47;146.68;;;55.35;;
26742;SDS011;14341;51.256;22.478;2022-12-24T17:54:51;124.82;;;54.08;;
26742;SDS011;14341;51.256;22.478;2022-12-24T17:57:55;140.95;;;53.50;;
26742;SDS011;14341;51.256;22.478;2022-12-24T18:00:59;97.88;;;49.40;;